Time;durP1;ratioP1;P1;durP2;ratioP2;P2;SDS_P1;SDS_P2;PMS_P1;PMS_P2;Temp;Humidity;BMP_temperature;BMP_pressure;BME280_temperature;BME280_humidity;BME280_pressure;Samples;Min_cycle;Max_cycle;Signal;HPM_P1;HPM_P2
2023/12/29 00:03:18;;;;;;;3.37;3.17;;;11.10;99.90;;;;;;10470891;28;20200;-78
2023/12/29 00:08:20;;;;;;;4.13;3.27;;;11.10;99.90;;;;;;10462560;28;20212;-78
2023/12/29 00:13:25;;;;;;;3.20;3.00;;;11.20;99.90;;;;;;10489532;28;20202;-78
2023/12/29 00:18:27;;;;;;;3.20;3.00;;;11.30;99.90;;;;;;10467556;28;20224;-78
2023/12/29 00:23:29;;;;;;;4.23;3.87;;;11.30;99.90;;;;;;10471200;28;20193;-78
2023/12/29 00:28:35;;;;;;;3.47;3.20;;;11.40;99.90;;;;;;10456466;28;20212;-78
2023/12/29 00:33:37;;;;;;;3.70;3.40;;;11.40;99.90;;;;;;10475172;28;20738;-78
2023/12/29 00:38:40;;;;;;;3.03;2.83;;;11.30;99.90;;;;;;10465393;28;20221;-78
2023/12/29 00:43:44;;;;;;;3.47;3.27;;;11.30;99.90;;;;;;10453060;28;20243;-78
2023/12/29 00:48:46;;;;;;;3.97;3.73;;;11.30;99.90;;;;;;10467300;28;20203;-78
2023/12/29 00:53:49;;;;;;;3.40;3.20;;;11.30;99.90;;;;;;10452301;28;20395;-78
2023/12/29 00:58:52;;;;;;;3.30;2.93;;;11.40;99.90;;;;;;10483936;28;20243;-78
2023/12/29 01:03:55;;;;;;;3.80;3.50;;;11.40;99.90;;;;;;10479784;28;20200;-78
2023/12/29 01:08:58;;;;;;;3.40;3.20;;;11.40;99.90;;;;;;10468961;28;20249;-78
2023/12/29 01:14:01;;;;;;;3.47;3.17;;;11.40;99.90;;;;;;10448930;28;20205;-78
2023/12/29 01:19:04;;;;;;;3.30;3.10;;;11.40;99.90;;;;;;10464314;28;20216;-78
2023/12/29 01:24:07;;;;;;;3.93;3.60;;;11.40;99.90;;;;;;10467312;28;20221;-79
2023/12/29 01:29:11;;;;;;;4.00;3.33;;;11.40;99.90;;;;;;10462847;28;20242;-78
2023/12/29 01:34:13;;;;;;;3.07;2.87;;;11.40;99.90;;;;;;10466276;28;20216;-78
2023/12/29 01:39:17;;;;;;;4.30;3.23;;;11.30;99.90;;;;;;10480585;28;20212;-78
2023/12/29 01:44:22;;;;;;;3.57;3.37;;;11.30;99.90;;;;;;10472788;28;20270;-78
2023/12/29 01:49:24;;;;;;;4.50;3.80;;;11.30;99.90;;;;;;10467937;28;20189;-78
2023/12/29 01:54:33;;;;;;;3.67;3.40;;;11.40;99.90;;;;;;10466682;28;20224;-78
2023/12/29 01:59:38;;;;;;;3.37;3.17;;;11.40;99.90;;;;;;10469903;28;20196;-78
2023/12/29 02:04:42;;;;;;;3.90;3.60;;;11.50;99.90;;;;;;10458067;28;20220;-78
2023/12/29 02:09:45;;;;;;;4.23;3.80;;;11.50;99.90;;;;;;10470209;28;20205;-78
2023/12/29 02:14:49;;;;;;;3.90;3.60;;;11.50;99.90;;;;;;10457798;28;20224;-78
2023/12/29 02:19:54;;;;;;;3.50;3.30;;;11.50;99.90;;;;;;10486577;28;20196;-75
2023/12/29 02:24:57;;;;;;;4.23;3.30;;;11.40;99.90;;;;;;10471131;28;20779;-76
2023/12/29 02:30:09;;;;;;;4.07;3.77;;;11.50;99.90;;;;;;10482855;28;20196;-76
2023/12/29 02:35:15;;;;;;;4.03;3.60;;;11.50;99.90;;;;;;10471900;28;20608;-76
2023/12/29 02:40:19;;;;;;;7.07;3.90;;;11.50;99.90;;;;;;10465145;28;20197;-76
2023/12/29 02:45:21;;;;;;;7.87;4.70;;;11.60;99.90;;;;;;10469837;28;20214;-75
2023/12/29 02:50:24;;;;;;;3.93;3.63;;;11.60;99.90;;;;;;10464814;28;20197;-78
2023/12/29 02:55:28;;;;;;;4.53;3.70;;;11.60;99.90;;;;;;10457138;28;20233;-78
2023/12/29 03:00:31;;;;;;;4.33;4.00;;;11.60;99.90;;;;;;10485374;28;20192;-78
2023/12/29 03:05:33;;;;;;;3.93;3.63;;;11.50;99.90;;;;;;10490057;28;20258;-78
2023/12/29 03:10:37;;;;;;;4.50;4.10;;;11.40;99.90;;;;;;10456839;28;20189;-78
2023/12/29 03:15:39;;;;;;;4.10;3.80;;;11.40;99.90;;;;;;10465662;28;20600;-78
2023/12/29 03:20:42;;;;;;;4.60;4.30;;;11.30;99.90;;;;;;10457729;28;20201;-78
2023/12/29 03:25:45;;;;;;;4.33;4.03;;;11.20;99.90;;;;;;10483824;28;20590;-78
2023/12/29 03:30:48;;;;;;;4.03;3.70;;;11.20;99.90;;;;;;10456771;28;20189;-78
2023/12/29 03:35:50;;;;;;;4.17;3.87;;;11.10;99.90;;;;;;10463733;28;20228;-78
2023/12/29 03:40:53;;;;;;;4.33;3.93;;;11.10;99.90;;;;;;10462379;28;20201;-78
2023/12/29 03:45:56;;;;;;;3.80;3.50;;;11.00;99.90;;;;;;10463357;28;20278;-78
2023/12/29 03:50:59;;;;;;;4.47;4.07;;;11.00;99.90;;;;;;10453651;28;20246;-76
2023/12/29 03:56:08;;;;;;;4.00;3.70;;;10.90;99.90;;;;;;10458121;28;20638;-75
2023/12/29 04:01:11;;;;;;;4.00;3.50;;;10.90;99.90;;;;;;10478904;28;20197;-76
2023/12/29 04:06:13;;;;;;;4.10;3.90;;;10.90;99.90;;;;;;10455307;28;20310;-75
2023/12/29 04:11:17;;;;;;;4.93;4.43;;;10.80;99.90;;;;;;10457740;28;20581;-76
2023/12/29 04:16:19;;;;;;;4.10;3.90;;;10.80;99.90;;;;;;10452381;28;20221;-75
2023/12/29 04:21:21;;;;;;;3.87;3.67;;;10.80;99.90;;;;;;10474623;28;20196;-76
2023/12/29 04:26:25;;;;;;;3.20;3.00;;;10.80;99.90;;;;;;10452710;28;20209;-76
2023/12/29 04:31:27;;;;;;;3.17;2.97;;;10.80;99.90;;;;;;10459304;28;20760;-76
2023/12/29 04:36:30;;;;;;;3.10;3.00;;;10.80;99.90;;;;;;10456725;28;20232;-76
2023/12/29 04:41:33;;;;;;;3.73;3.53;;;10.90;99.90;;;;;;10471262;28;20690;-75
2023/12/29 04:46:36;;;;;;;4.13;3.67;;;10.80;99.90;;;;;;10471977;28;20274;-75
2023/12/29 04:51:39;;;;;;;4.47;4.07;;;10.80;99.90;;;;;;10469557;28;20666;-75
2023/12/29 04:56:43;;;;;;;7.30;3.63;;;10.80;99.90;;;;;;10471498;28;20225;-76
2023/12/29 05:01:45;;;;;;;3.30;3.10;;;10.80;99.90;;;;;;10471302;28;20692;-76
2023/12/29 05:06:47;;;;;;;4.33;3.93;;;10.90;99.90;;;;;;10483972;28;20251;-76
2023/12/29 05:11:51;;;;;;;4.17;3.90;;;10.90;99.90;;;;;;10468045;28;20204;-77
2023/12/29 05:16:53;;;;;;;4.37;4.07;;;10.90;99.90;;;;;;10451827;28;20709;-77
2023/12/29 05:21:56;;;;;;;5.37;4.90;;;11.00;99.90;;;;;;10473850;28;20699;-76
2023/12/29 05:26:59;;;;;;;3.73;3.53;;;11.00;99.90;;;;;;10469224;28;20342;-76
2023/12/29 05:32:02;;;;;;;4.60;4.13;;;11.10;99.90;;;;;;10473866;28;20671;-77
2023/12/29 05:37:04;;;;;;;4.30;4.00;;;11.00;99.90;;;;;;10452504;28;20721;-77
2023/12/29 05:42:08;;;;;;;4.10;3.80;;;11.00;99.90;;;;;;10489972;28;20203;-77
2023/12/29 05:47:12;;;;;;;4.50;4.13;;;10.90;99.90;;;;;;10475972;28;20224;-77
2023/12/29 05:52:15;;;;;;;4.23;3.93;;;10.90;99.90;;;;;;10464443;28;20208;-77
2023/12/29 05:57:19;;;;;;;4.00;3.80;;;10.80;99.90;;;;;;10487136;28;20270;-77
2023/12/29 06:02:21;;;;;;;5.00;4.60;;;10.80;99.90;;;;;;10476716;28;20284;-77
2023/12/29 06:07:24;;;;;;;5.57;3.97;;;10.70;99.90;;;;;;10468310;28;20705;-78
2023/12/29 06:12:28;;;;;;;4.50;4.10;;;10.70;99.90;;;;;;10473129;28;20205;-78
2023/12/29 06:17:30;;;;;;;4.63;4.33;;;10.70;99.90;;;;;;10465155;28;20220;-78
2023/12/29 06:22:33;;;;;;;4.07;3.77;;;10.70;99.90;;;;;;10474634;28;20197;-78
2023/12/29 06:27:37;;;;;;;3.90;3.70;;;10.70;99.90;;;;;;10464372;28;20208;-77
2023/12/29 06:32:39;;;;;;;3.80;3.50;;;10.70;99.90;;;;;;10474676;28;20197;-78
2023/12/29 06:37:42;;;;;;;3.77;3.57;;;10.60;99.90;;;;;;10466593;28;20238;-77
2023/12/29 06:42:46;;;;;;;3.60;3.30;;;10.60;99.90;;;;;;10470838;28;20666;-78
2023/12/29 06:47:48;;;;;;;4.33;4.03;;;10.50;99.90;;;;;;10483043;28;20418;-78
2023/12/29 06:52:50;;;;;;;5.60;3.77;;;10.60;99.90;;;;;;10470543;28;20204;-78
2023/12/29 06:57:54;;;;;;;3.87;3.67;;;10.60;99.90;;;;;;10496142;22;20230;-78
2023/12/29 07:02:57;;;;;;;4.27;3.97;;;10.60;99.90;;;;;;10420865;28;20205;-78
2023/12/29 07:07:59;;;;;;;3.47;3.27;;;10.60;99.90;;;;;;10462461;28;20285;-79
2023/12/29 07:13:03;;;;;;;3.57;3.37;;;10.70;99.90;;;;;;10470690;28;20207;-78
2023/12/29 07:18:06;;;;;;;4.47;4.20;;;10.70;99.90;;;;;;10464670;28;20225;-79
2023/12/29 07:23:08;;;;;;;4.23;3.27;;;10.80;99.90;;;;;;10452726;28;20192;-78
2023/12/29 07:28:12;;;;;;;3.47;3.17;;;10.80;99.90;;;;;;10461376;28;20344;-79
2023/12/29 07:33:15;;;;;;;3.53;3.33;;;10.80;99.90;;;;;;10470239;28;20201;-78
2023/12/29 07:38:17;;;;;;;3.10;2.90;;;10.70;99.90;;;;;;10487622;28;20738;-78
2023/12/29 07:43:21;;;;;;;4.20;3.90;;;10.70;99.90;;;;;;10464512;28;20205;-78
2023/12/29 07:48:24;;;;;;;3.77;3.57;;;10.70;99.90;;;;;;10468474;28;20689;-79
2023/12/29 07:53:26;;;;;;;3.80;3.60;;;10.70;99.90;;;;;;10491306;28;20209;-79
2023/12/29 07:58:30;;;;;;;3.77;3.57;;;10.70;99.90;;;;;;10464243;28;20221;-80
2023/12/29 08:03:32;;;;;;;3.43;3.23;;;10.80;99.90;;;;;;10469999;28;20201;-77
2023/12/29 08:08:35;;;;;;;3.47;3.27;;;10.70;99.90;;;;;;10491341;28;20217;-78
2023/12/29 08:13:39;;;;;;;3.60;3.40;;;10.90;99.90;;;;;;10496570;28;20193;-78
2023/12/29 08:18:42;;;;;;;3.87;3.57;;;10.90;99.90;;;;;;10468136;28;20227;-78
2023/12/29 08:23:44;;;;;;;3.70;3.40;;;10.90;99.90;;;;;;10478843;28;20201;-76
2023/12/29 08:28:48;;;;;;;3.40;3.20;;;11.00;99.90;;;;;;10462586;28;20212;-77
2023/12/29 08:33:51;;;;;;;3.17;2.97;;;11.10;99.90;;;;;;10486805;28;20255;-77
2023/12/29 08:38:54;;;;;;;3.40;3.13;;;11.10;99.90;;;;;;10437649;28;20224;-77
2023/12/29 08:43:57;;;;;;;4.17;3.80;;;11.10;99.90;;;;;;10464565;28;20285;-76
2023/12/29 08:49:00;;;;;;;4.17;3.87;;;11.20;99.90;;;;;;10490504;28;20212;-77
2023/12/29 08:54:03;;;;;;;3.67;3.47;;;11.20;99.90;;;;;;10461052;28;20196;-78
2023/12/29 08:59:06;;;;;;;3.17;2.97;;;11.30;99.90;;;;;;10491497;28;20710;-80
2023/12/29 09:04:09;;;;;;;3.33;3.13;;;11.30;99.90;;;;;;10446869;28;20193;-79
2023/12/29 09:09:12;;;;;;;5.23;3.37;;;11.40;99.90;;;;;;10450493;28;20756;-78
2023/12/29 09:14:16;;;;;;;3.53;3.23;;;11.40;99.90;;;;;;10464235;28;20215;-77
2023/12/29 09:19:19;;;;;;;3.57;3.27;;;11.50;99.90;;;;;;10486378;28;20233;-77
2023/12/29 09:24:21;;;;;;;3.30;3.10;;;11.50;99.90;;;;;;10461598;28;20201;-77
2023/12/29 09:29:25;;;;;;;3.47;3.17;;;11.60;99.90;;;;;;10447292;28;20221;-79
2023/12/29 09:34:27;;;;;;;3.47;2.50;;;11.70;99.90;;;;;;10487572;28;20201;-77
2023/12/29 09:39:31;;;;;;;3.47;2.80;;;11.80;99.90;;;;;;10439231;28;20220;-79
2023/12/29 09:44:37;;;;;;;2.90;2.70;;;11.80;99.90;;;;;;10482481;28;20622;-79
2023/12/29 09:49:41;;;;;;;2.90;2.80;;;11.70;99.90;;;;;;10479996;28;20290;-79
2023/12/29 09:54:45;;;;;;;2.60;2.40;;;11.70;99.90;;;;;;10457569;28;20189;-79
2023/12/29 09:59:52;;;;;;;2.70;2.50;;;11.60;99.90;;;;;;10481391;28;20229;-78
2023/12/29 10:04:54;;;;;;;3.17;2.90;;;11.60;99.90;;;;;;10461313;28;20212;-77
2023/12/29 10:09:58;;;;;;;2.90;2.70;;;11.60;99.90;;;;;;10478279;28;20225;-78
2023/12/29 10:15:10;;;;;;;2.60;2.50;;;11.70;99.90;;;;;;10452398;28;20216;-77
2023/12/29 10:20:24;;;;;;;2.70;2.60;;;11.70;99.90;;;;;;10492900;28;20290;-79
2023/12/29 10:25:26;;;;;;;2.60;2.50;;;11.70;99.90;;;;;;10495693;28;20262;-80
2023/12/29 10:30:31;;;;;;;2.60;2.40;;;11.80;99.90;;;;;;10449277;28;20216;-79
2023/12/29 10:35:34;;;;;;;2.73;2.50;;;11.70;99.90;;;;;;10465876;28;20201;-79
2023/12/29 10:40:37;;;;;;;2.30;2.20;;;11.70;99.90;;;;;;10495978;28;20698;-79
2023/12/29 10:45:40;;;;;;;2.23;2.13;;;11.70;99.90;;;;;;10470427;28;20723;-79
2023/12/29 10:50:46;;;;;;;2.27;2.17;;;11.70;99.90;;;;;;10501333;28;20216;-78
2023/12/29 10:55:48;;;;;;;2.30;2.20;;;11.70;99.90;;;;;;10468192;28;20215;-78
2023/12/29 11:00:52;;;;;;;2.20;2.10;;;11.80;99.90;;;;;;10505339;28;20216;-79
2023/12/29 11:06:00;;;;;;;1.83;1.73;;;11.90;99.90;;;;;;10462520;28;20204;-78
2023/12/29 11:11:04;;;;;;;1.90;1.80;;;11.90;99.90;;;;;;10497515;28;20197;-78
2023/12/29 11:16:08;;;;;;;2.30;2.20;;;11.90;99.90;;;;;;10467669;28;20213;-79
2023/12/29 11:21:12;;;;;;;1.93;1.80;;;12.00;99.90;;;;;;10497173;28;20224;-79
2023/12/29 11:26:16;;;;;;;2.30;2.13;;;12.00;99.90;;;;;;10462757;28;20227;-78
2023/12/29 11:31:20;;;;;;;1.90;1.80;;;12.00;99.90;;;;;;10499595;28;20619;-79
2023/12/29 11:36:28;;;;;;;1.90;1.80;;;12.00;99.90;;;;;;10465315;28;20266;-79
2023/12/29 11:41:39;;;;;;;2.30;2.20;;;12.10;99.90;;;;;;10500314;28;20224;-79
2023/12/29 11:46:44;;;;;;;1.70;1.60;;;12.10;99.90;;;;;;10478992;28;20220;-79
2023/12/29 11:51:49;;;;;;;1.83;1.73;;;12.20;99.90;;;;;;10465534;28;20195;-79
2023/12/29 11:56:52;;;;;;;2.13;1.73;;;12.20;99.90;;;;;;10502333;28;20224;-79
2023/12/29 12:01:56;;;;;;;2.20;2.10;;;12.20;99.90;;;;;;10463948;28;20219;-79
2023/12/29 12:06:59;;;;;;;2.07;1.97;;;12.30;99.90;;;;;;10505512;28;20673;-78
2023/12/29 12:12:02;;;;;;;2.17;2.00;;;12.30;99.90;;;;;;10468051;28;20662;-78
2023/12/29 12:17:06;;;;;;;2.20;2.10;;;12.40;99.90;;;;;;10478329;28;20224;-77
2023/12/29 12:22:12;;;;;;;2.03;1.93;;;12.40;99.90;;;;;;10478068;28;20319;-77
2023/12/29 12:27:14;;;;;;;2.07;1.97;;;12.40;99.90;;;;;;10490692;28;20796;-78
2023/12/29 12:32:18;;;;;;;2.10;2.00;;;12.40;99.90;;;;;;10457818;28;20196;-77
2023/12/29 12:37:22;;;;;;;1.90;1.80;;;12.40;99.90;;;;;;10476887;28;20266;-78
2023/12/29 12:42:24;;;;;;;1.83;1.73;;;12.40;99.90;;;;;;10483517;28;20221;-79
2023/12/29 12:47:35;;;;;;;2.07;1.80;;;12.40;99.90;;;;;;10492925;28;20231;-78
2023/12/29 12:52:37;;;;;;;1.97;1.87;;;12.50;99.90;;;;;;10494055;28;20219;-77
2023/12/29 12:57:40;;;;;;;1.50;1.40;;;12.50;99.90;;;;;;10512693;22;20220;-82
2023/12/29 13:02:46;;;;;;;1.93;1.83;;;12.70;99.90;;;;;;10501399;28;20200;-82
2023/12/29 13:07:48;;;;;;;1.97;1.87;;;12.80;99.90;;;;;;10494487;28;20224;-84
2023/12/29 13:12:54;;;;;;;1.90;1.80;;;13.00;99.90;;;;;;10482811;28;20193;-82
2023/12/29 13:17:58;;;;;;;1.37;1.27;;;13.20;99.90;;;;;;10504708;28;20264;-82
2023/12/29 13:23:01;;;;;;;2.13;2.03;;;13.20;99.90;;;;;;10506901;28;20204;-83
2023/12/29 13:28:04;;;;;;;2.20;1.87;;;13.30;99.90;;;;;;10490467;28;20231;-82
2023/12/29 13:33:12;;;;;;;1.77;1.67;;;13.30;99.90;;;;;;10505129;28;20759;-83
2023/12/29 13:38:23;;;;;;;1.90;1.60;;;13.30;99.10;;;;;;10485348;28;20212;-84
2023/12/29 13:43:26;;;;;;;2.27;1.73;;;13.20;99.40;;;;;;10478285;28;20189;-82
2023/12/29 13:48:32;;;;;;;1.90;1.77;;;12.90;99.70;;;;;;10515065;28;20208;-84
2023/12/29 13:53:34;;;;;;;3.10;1.97;;;13.10;99.50;;;;;;10523477;28;20188;-83
2023/12/29 13:58:37;;;;;;;2.90;1.70;;;13.00;99.60;;;;;;10500620;28;20224;-84
2023/12/29 14:03:47;;;;;;;1.80;1.70;;;13.00;99.60;;;;;;10509272;28;20200;-83
2023/12/29 14:08:49;;;;;;;2.50;2.30;;;13.00;99.40;;;;;;10514777;28;20218;-82
2023/12/29 14:13:52;;;;;;;1.80;1.70;;;12.90;99.10;;;;;;10509174;28;20575;-83
2023/12/29 14:18:57;;;;;;;1.90;1.80;;;12.90;98.60;;;;;;10503151;28;20565;-82
2023/12/29 14:24:02;;;;;;;2.27;2.07;;;12.90;99.00;;;;;;10516703;28;20547;-83
2023/12/29 14:29:06;;;;;;;2.10;2.00;;;13.00;98.60;;;;;;10494699;28;20235;-83
2023/12/29 14:34:10;;;;;;;3.33;1.97;;;13.00;98.70;;;;;;10513475;28;20639;-82
2023/12/29 14:39:14;;;;;;;2.47;2.27;;;12.90;98.70;;;;;;10527692;28;20231;-80
2023/12/29 14:44:16;;;;;;;2.00;1.90;;;12.90;98.70;;;;;;10517683;28;20200;-82
2023/12/29 14:49:20;;;;;;;2.27;2.17;;;12.90;98.70;;;;;;10487920;28;20208;-82
2023/12/29 14:54:22;;;;;;;2.97;2.67;;;12.90;98.40;;;;;;10525404;28;20197;-84
2023/12/29 14:59:25;;;;;;;2.03;1.90;;;12.90;98.10;;;;;;10514252;28;20227;-82
2023/12/29 15:04:31;;;;;;;2.10;2.00;;;12.90;98.40;;;;;;10509258;28;20193;-83
2023/12/29 15:09:35;;;;;;;4.07;2.80;;;12.80;98.80;;;;;;10507679;28;20602;-83
2023/12/29 15:14:38;;;;;;;2.77;2.57;;;12.80;98.90;;;;;;10508982;28;20204;-82
2023/12/29 15:19:41;;;;;;;2.23;2.13;;;12.80;99.00;;;;;;10501909;28;20270;-86
2023/12/29 15:24:44;;;;;;;2.40;2.20;;;12.70;98.60;;;;;;10512258;28;20204;-84
2023/12/29 15:29:46;;;;;;;2.17;2.07;;;12.70;98.50;;;;;;10493534;28;20728;-82
2023/12/29 15:34:50;;;;;;;2.60;2.40;;;12.60;98.20;;;;;;10484319;28;20200;-83
2023/12/29 15:39:52;;;;;;;2.27;2.17;;;12.50;97.90;;;;;;10509534;28;20221;-84
2023/12/29 15:44:54;;;;;;;2.57;2.37;;;12.50;97.50;;;;;;10501340;28;20208;-86
2023/12/29 15:49:58;;;;;;;2.77;2.57;;;12.40;97.50;;;;;;10507351;28;20231;-84
2023/12/29 15:55:01;;;;;;;2.77;2.50;;;12.50;98.00;;;;;;10507678;28;20631;-84
2023/12/29 16:00:05;;;;;;;2.63;2.43;;;12.40;97.50;;;;;;10496647;28;20337;-83
2023/12/29 16:05:15;;;;;;;2.53;2.20;;;12.40;97.30;;;;;;10510519;28;20201;-83
2023/12/29 16:10:18;;;;;;;2.83;2.63;;;12.40;97.00;;;;;;10506757;28;20250;-83
2023/12/29 16:15:20;;;;;;;2.70;2.50;;;12.30;96.30;;;;;;10509183;28;20215;-85
2023/12/29 16:20:24;;;;;;;2.60;2.40;;;12.30;95.80;;;;;;10503139;28;20705;-84
2023/12/29 16:25:26;;;;;;;2.40;2.20;;;12.20;95.40;;;;;;10470398;28;20239;-84
2023/12/29 16:30:29;;;;;;;1.90;1.80;;;12.20;95.40;;;;;;10480325;28;20636;-85
2023/12/29 16:35:32;;;;;;;2.53;2.33;;;12.10;95.20;;;;;;10498387;28;20196;-83
2023/12/29 16:40:36;;;;;;;2.67;2.57;;;12.00;95.10;;;;;;10493269;28;20243;-83
2023/12/29 16:45:39;;;;;;;2.57;2.37;;;11.90;94.90;;;;;;10473386;28;20205;-84
2023/12/29 16:50:43;;;;;;;3.00;2.80;;;11.90;94.90;;;;;;10499672;28;20265;-85
2023/12/29 16:55:45;;;;;;;2.50;2.30;;;11.90;95.10;;;;;;10513300;28;20223;-85
2023/12/29 17:00:48;;;;;;;3.93;3.53;;;11.80;95.30;;;;;;10508466;28;20338;-83
2023/12/29 17:05:52;;;;;;;4.63;2.40;;;11.70;95.10;;;;;;10495712;28;20201;-84
2023/12/29 17:10:55;;;;;;;3.10;2.90;;;11.70;94.90;;;;;;10489782;28;20220;-83
2023/12/29 17:15:57;;;;;;;4.53;3.87;;;11.70;95.30;;;;;;10497313;28;20196;-83
2023/12/29 17:21:02;;;;;;;4.00;3.70;;;11.60;95.30;;;;;;10475250;28;20221;-83
2023/12/29 17:26:10;;;;;;;2.80;2.60;;;11.50;95.70;;;;;;10497697;28;20196;-84
2023/12/29 17:31:13;;;;;;;3.60;3.30;;;11.40;96.10;;;;;;10479218;28;20718;-83
2023/12/29 17:36:16;;;;;;;3.50;3.20;;;11.30;96.40;;;;;;10480009;28;20197;-85
2023/12/29 17:41:19;;;;;;;3.23;3.03;;;11.30;96.30;;;;;;10483587;28;20212;-83
2023/12/29 17:46:21;;;;;;;2.90;2.70;;;11.20;96.30;;;;;;10477853;28;20196;-81
2023/12/29 17:51:28;;;;;;;3.53;3.10;;;11.20;96.60;;;;;;10484307;28;20247;-85
2023/12/29 17:56:30;;;;;;;3.13;2.83;;;11.10;96.80;;;;;;10448546;28;20254;-82
2023/12/29 18:01:33;;;;;;;3.80;3.30;;;11.10;96.90;;;;;;10495121;28;20231;-83
2023/12/29 18:06:36;;;;;;;3.27;2.77;;;11.00;97.10;;;;;;10493909;28;20219;-82
2023/12/29 18:11:39;;;;;;;3.43;3.23;;;11.00;97.20;;;;;;10501013;28;20227;-83
2023/12/29 18:16:42;;;;;;;3.40;3.03;;;11.00;97.40;;;;;;10494988;28;20713;-82
2023/12/29 18:21:46;;;;;;;4.13;3.80;;;10.90;97.80;;;;;;10499904;28;20213;-82
2023/12/29 18:26:49;;;;;;;3.50;3.20;;;10.90;97.60;;;;;;10481232;28;20597;-83
2023/12/29 18:31:51;;;;;;;3.50;3.23;;;10.90;97.80;;;;;;10504641;28;20199;-82
2023/12/29 18:36:55;;;;;;;4.60;4.20;;;10.90;98.00;;;;;;10497553;28;20262;-82
2023/12/29 18:41:59;;;;;;;4.50;4.10;;;10.90;98.10;;;;;;10499804;28;20573;-82
2023/12/29 18:47:01;;;;;;;5.40;4.67;;;10.80;98.20;;;;;;10488679;28;20239;-82
2023/12/29 18:52:06;;;;;;;5.10;4.70;;;10.80;98.30;;;;;;10463472;28;20674;-82
2023/12/29 18:57:08;;;;;;;4.47;4.10;;;10.80;98.30;;;;;;10524580;22;20237;-77
2023/12/29 19:02:12;;;;;;;5.33;4.37;;;10.70;98.40;;;;;;10471694;28;20231;-76
2023/12/29 19:07:18;;;;;;;9.60;7.87;;;10.60;98.50;;;;;;10479888;28;20274;-76
2023/12/29 19:12:20;;;;;;;6.53;5.93;;;10.60;98.50;;;;;;10476555;28;20303;-76
2023/12/29 19:17:24;;;;;;;4.70;4.30;;;10.60;98.60;;;;;;10478214;28;20225;-76
2023/12/29 19:22:28;;;;;;;3.97;3.57;;;10.60;98.50;;;;;;10480438;28;20243;-76
2023/12/29 19:27:30;;;;;;;4.87;4.40;;;10.50;98.90;;;;;;10475146;28;20220;-76
2023/12/29 19:32:32;;;;;;;4.10;3.80;;;10.60;98.90;;;;;;10481322;28;20193;-76
2023/12/29 19:37:36;;;;;;;3.87;3.57;;;10.60;99.10;;;;;;10463156;28;20229;-76
2023/12/29 19:42:38;;;;;;;4.13;3.80;;;10.60;99.40;;;;;;10477611;28;20216;-76
2023/12/29 19:47:41;;;;;;;4.87;4.37;;;10.60;99.50;;;;;;10466740;28;20247;-76
2023/12/29 19:52:45;;;;;;;3.67;3.37;;;10.60;99.80;;;;;;10457493;28;20193;-77
2023/12/29 19:57:47;;;;;;;5.03;4.10;;;10.60;99.90;;;;;;10473798;28;20220;-76
2023/12/29 20:02:50;;;;;;;5.70;5.10;;;10.60;99.80;;;;;;10464374;28;20212;-76
2023/12/29 20:07:53;;;;;;;3.70;3.40;;;10.60;99.90;;;;;;10488333;28;20227;-76
2023/12/29 20:12:55;;;;;;;3.53;3.33;;;10.70;99.00;;;;;;10483216;28;20275;-76
2023/12/29 20:17:58;;;;;;;3.70;3.40;;;10.60;99.30;;;;;;10474684;28;20298;-77
2023/12/29 20:23:02;;;;;;;3.20;3.00;;;10.60;98.80;;;;;;10475139;28;20225;-77
2023/12/29 20:28:04;;;;;;;3.50;3.13;;;10.60;98.10;;;;;;10469916;28;21253;-77
2023/12/29 20:33:06;;;;;;;3.13;2.83;;;10.70;97.00;;;;;;10486728;28;20201;-77
2023/12/29 20:38:10;;;;;;;2.47;2.37;;;10.70;97.00;;;;;;10466583;28;20647;-77
2023/12/29 20:43:12;;;;;;;2.87;2.67;;;10.70;97.00;;;;;;10465103;28;20225;-77
2023/12/29 20:48:15;;;;;;;3.60;2.87;;;10.70;96.70;;;;;;10456606;28;20658;-77
2023/12/29 20:53:19;;;;;;;3.00;2.80;;;10.70;96.40;;;;;;10464567;28;20185;-78
2023/12/29 20:58:23;;;;;;;2.67;2.47;;;10.70;96.90;;;;;;10454593;28;20627;-78
2023/12/29 21:03:25;;;;;;;2.43;2.33;;;10.70;96.80;;;;;;10462579;28;20224;-77
2023/12/29 21:08:29;;;;;;;2.67;2.57;;;10.70;96.70;;;;;;10453391;28;20702;-77
2023/12/29 21:13:33;;;;;;;2.53;2.33;;;10.70;96.50;;;;;;10461317;28;20659;-76
2023/12/29 21:18:36;;;;;;;2.57;2.47;;;10.70;96.10;;;;;;10437464;28;20236;-77
2023/12/29 21:23:39;;;;;;;2.87;2.77;;;10.70;96.20;;;;;;10458888;28;20275;-77
2023/12/29 21:28:42;;;;;;;2.40;2.30;;;10.70;96.40;;;;;;10449822;28;20271;-77
2023/12/29 21:33:44;;;;;;;3.17;2.23;;;10.60;96.40;;;;;;10439327;28;20185;-77
2023/12/29 21:38:48;;;;;;;3.33;2.77;;;10.60;96.70;;;;;;10464958;28;20221;-77
2023/12/29 21:43:51;;;;;;;2.50;2.40;;;10.60;96.60;;;;;;10455781;28;20209;-77
2023/12/29 21:48:53;;;;;;;2.37;2.27;;;10.50;96.90;;;;;;10463212;28;20608;-77
2023/12/29 21:53:57;;;;;;;2.63;2.43;;;10.50;97.10;;;;;;10474275;28;20192;-77
2023/12/29 21:58:59;;;;;;;2.60;2.40;;;10.50;97.60;;;;;;10464767;28;20287;-77
2023/12/29 22:04:03;;;;;;;3.30;3.10;;;10.50;97.70;;;;;;10452004;28;20709;-77
2023/12/29 22:09:07;;;;;;;2.90;2.70;;;10.50;97.90;;;;;;10463837;28;20216;-77
2023/12/29 22:14:09;;;;;;;3.57;3.27;;;10.50;98.20;;;;;;10442904;28;20193;-77
2023/12/29 22:19:11;;;;;;;2.60;2.50;;;10.50;98.40;;;;;;10479798;28;20205;-77
2023/12/29 22:24:15;;;;;;;2.93;2.70;;;10.50;98.60;;;;;;10474373;28;20220;-77
2023/12/29 22:29:17;;;;;;;2.90;2.70;;;10.40;98.90;;;;;;10479785;28;20693;-76
2023/12/29 22:34:20;;;;;;;3.13;2.93;;;10.40;98.90;;;;;;10476023;28;20189;-77
2023/12/29 22:39:23;;;;;;;2.80;2.50;;;10.40;99.00;;;;;;10480399;28;20212;-78
2023/12/29 22:44:27;;;;;;;2.80;2.60;;;10.30;99.00;;;;;;10476626;28;20232;-78
2023/12/29 22:49:29;;;;;;;2.97;2.77;;;10.40;99.10;;;;;;10479087;28;20697;-77
2023/12/29 22:54:33;;;;;;;2.67;2.57;;;10.40;99.30;;;;;;10477851;28;20251;-78
2023/12/29 22:59:37;;;;;;;2.60;2.43;;;10.30;99.30;;;;;;10478551;28;20223;-78
2023/12/29 23:04:40;;;;;;;3.70;3.40;;;10.30;99.50;;;;;;10476920;28;20694;-77
2023/12/29 23:09:43;;;;;;;2.63;2.43;;;10.30;99.60;;;;;;10476903;28;20224;-78
2023/12/29 23:14:46;;;;;;;3.13;2.90;;;10.40;99.40;;;;;;10496092;28;20254;-77
2023/12/29 23:19:48;;;;;;;3.50;3.30;;;10.30;99.60;;;;;;10477027;28;20209;-78
2023/12/29 23:24:52;;;;;;;2.87;2.67;;;10.30;99.50;;;;;;10463508;28;20494;-77
2023/12/29 23:29:54;;;;;;;4.60;3.10;;;10.30;99.50;;;;;;10477089;28;20239;-77
2023/12/29 23:34:58;;;;;;;3.23;2.63;;;10.20;99.50;;;;;;10461413;28;20204;-78
2023/12/29 23:40:01;;;;;;;3.07;2.80;;;10.20;99.50;;;;;;10463345;28;20255;-78
2023/12/29 23:45:06;;;;;;;3.40;3.10;;;10.10;99.80;;;;;;10448441;28;20221;-76
2023/12/29 23:50:09;;;;;;;4.33;2.90;;;10.10;99.90;;;;;;10471131;28;20227;-78
2023/12/29 23:55:12;;;;;;;3.00;2.80;;;10.10;99.90;;;;;;10474887;28;21022;-78
